sensor_id;sensor_type;location;lat;lon;timestamp;P1;durP1;ratioP1;P2;durP2;ratioP2
49890;SDS011;35780;55.568;37.492;2023-03-01T00:01:11;3.35;;;1.10;;
49890;SDS011;35780;55.568;37.492;2023-03-01T00:03:41;2.53;;;0.90;;
49890;SDS011;35780;55.568;37.492;2023-03-01T00:06:07;3.00;;;0.82;;
49890;SDS011;35780;55.568;37.492;2023-03-01T00:08:33;3.90;;;1.15;;
49890;SDS011;35780;55.568;37.492;2023-03-01T00:11:00;2.83;;;1.05;;
49890;SDS011;35780;55.568;37.492;2023-03-01T00:13:30;2.33;;;1.20;;
49890;SDS011;35780;55.568;37.492;2023-03-01T00:15:56;5.60;;;0.50;;
49890;SDS011;35780;55.568;37.492;2023-03-01T00:18:21;2.50;;;1.00;;
49890;SDS011;35780;55.568;37.492;2023-03-01T00:20:54;2.60;;;1.05;;
49890;SDS011;35780;55.568;37.492;2023-03-01T00:23:20;3.53;;;0.80;;
49890;SDS011;35780;55.568;37.492;2023-03-01T00:25:47;1.70;;;0.90;;
49890;SDS011;35780;55.568;37.492;2023-03-01T00:28:13;3.03;;;1.00;;
49890;SDS011;35780;55.568;37.492;2023-03-01T00:30:39;2.22;;;0.98;;
49890;SDS011;35780;55.568;37.492;2023-03-01T00:33:05;6.32;;;1.20;;
49890;SDS011;35780;55.568;37.492;2023-03-01T00:35:31;1.88;;;0.88;;
49890;SDS011;35780;55.568;37.492;2023-03-01T00:37:58;6.20;;;0.90;;
49890;SDS011;35780;55.568;37.492;2023-03-01T00:40:25;1.75;;;0.80;;
49890;SDS011;35780;55.568;37.492;2023-03-01T00:42:51;2.80;;;1.45;;
49890;SDS011;35780;55.568;37.492;2023-03-01T00:45:16;9.30;;;1.25;;
49890;SDS011;35780;55.568;37.492;2023-03-01T00:47:42;3.35;;;0.90;;
49890;SDS011;35780;55.568;37.492;2023-03-01T00:50:08;3.88;;;1.85;;
49890;SDS011;35780;55.568;37.492;2023-03-01T00:52:35;1.85;;;0.95;;
49890;SDS011;35780;55.568;37.492;2023-03-01T00:55:01;2.70;;;1.05;;
49890;SDS011;35780;55.568;37.492;2023-03-01T00:57:28;1.98;;;0.88;;
49890;SDS011;35780;55.568;37.492;2023-03-01T00:59:53;2.15;;;1.00;;
49890;SDS011;35780;55.568;37.492;2023-03-01T01:02:19;1.80;;;0.82;;
49890;SDS011;35780;55.568;37.492;2023-03-01T01:04:45;1.42;;;0.60;;
49890;SDS011;35780;55.568;37.492;2023-03-01T01:07:12;3.08;;;1.33;;
49890;SDS011;35780;55.568;37.492;2023-03-01T01:09:38;3.33;;;0.98;;
49890;SDS011;35780;55.568;37.492;2023-03-01T01:12:03;2.75;;;0.77;;
49890;SDS011;35780;55.568;37.492;2023-03-01T01:14:29;2.10;;;0.80;;
49890;SDS011;35780;55.568;37.492;2023-03-01T01:16:55;2.03;;;0.73;;
49890;SDS011;35780;55.568;37.492;2023-03-01T01:19:21;3.60;;;0.82;;
49890;SDS011;35780;55.568;37.492;2023-03-01T01:21:47;4.82;;;1.00;;
49890;SDS011;35780;55.568;37.492;2023-03-01T01:24:13;7.85;;;1.42;;
49890;SDS011;35780;55.568;37.492;2023-03-01T01:26:40;4.05;;;0.80;;
49890;SDS011;35780;55.568;37.492;2023-03-01T01:29:06;3.15;;;1.25;;
49890;SDS011;35780;55.568;37.492;2023-03-01T01:31:33;8.63;;;0.95;;
49890;SDS011;35780;55.568;37.492;2023-03-01T01:34:00;2.70;;;0.93;;
49890;SDS011;35780;55.568;37.492;2023-03-01T01:36:26;5.18;;;1.20;;
49890;SDS011;35780;55.568;37.492;2023-03-01T01:38:52;4.45;;;0.90;;
49890;SDS011;35780;55.568;37.492;2023-03-01T01:41:18;2.60;;;0.98;;
49890;SDS011;35780;55.568;37.492;2023-03-01T01:43:46;2.10;;;1.20;;
49890;SDS011;35780;55.568;37.492;2023-03-01T01:48:55;2.85;;;1.00;;
49890;SDS011;35780;55.568;37.492;2023-03-01T01:51:26;6.35;;;1.30;;
49890;SDS011;35780;55.568;37.492;2023-03-01T01:53:59;2.42;;;0.90;;
49890;SDS011;35780;55.568;37.492;2023-03-01T01:56:25;3.97;;;0.98;;
49890;SDS011;35780;55.568;37.492;2023-03-01T01:58:52;3.30;;;0.95;;
49890;SDS011;35780;55.568;37.492;2023-03-01T02:01:18;4.03;;;1.00;;
49890;SDS011;35780;55.568;37.492;2023-03-01T02:03:44;5.80;;;0.98;;
49890;SDS011;35780;55.568;37.492;2023-03-01T02:06:13;6.10;;;1.00;;
49890;SDS011;35780;55.568;37.492;2023-03-01T02:08:44;1.70;;;0.90;;
49890;SDS011;35780;55.568;37.492;2023-03-01T02:11:11;2.67;;;1.20;;
49890;SDS011;35780;55.568;37.492;2023-03-01T02:13:39;2.47;;;0.95;;
49890;SDS011;35780;55.568;37.492;2023-03-01T02:16:08;3.15;;;0.80;;
49890;SDS011;35780;55.568;37.492;2023-03-01T02:18:35;3.83;;;1.15;;
49890;SDS011;35780;55.568;37.492;2023-03-01T02:21:08;2.50;;;0.77;;
49890;SDS011;35780;55.568;37.492;2023-03-01T02:23:42;6.50;;;1.25;;
49890;SDS011;35780;55.568;37.492;2023-03-01T02:26:12;3.10;;;1.10;;
49890;SDS011;35780;55.568;37.492;2023-03-01T02:28:44;5.35;;;1.00;;
49890;SDS011;35780;55.568;37.492;2023-03-01T02:31:11;3.05;;;0.93;;
49890;SDS011;35780;55.568;37.492;2023-03-01T02:33:58;3.10;;;0.90;;
49890;SDS011;35780;55.568;37.492;2023-03-01T02:36:26;3.00;;;0.73;;
49890;SDS011;35780;55.568;37.492;2023-03-01T02:38:57;2.28;;;0.98;;
49890;SDS011;35780;55.568;37.492;2023-03-01T02:41:23;7.65;;;1.10;;
49890;SDS011;35780;55.568;37.492;2023-03-01T02:43:51;4.18;;;1.02;;
49890;SDS011;35780;55.568;37.492;2023-03-01T02:46:18;0.65;;;0.63;;
49890;SDS011;35780;55.568;37.492;2023-03-01T02:48:48;4.55;;;0.88;;
49890;SDS011;35780;55.568;37.492;2023-03-01T02:56:48;4.78;;;1.20;;
49890;SDS011;35780;55.568;37.492;2023-03-01T02:59:14;3.35;;;1.38;;
49890;SDS011;35780;55.568;37.492;2023-03-01T03:01:40;3.40;;;1.05;;
49890;SDS011;35780;55.568;37.492;2023-03-01T03:04:08;3.58;;;1.00;;
49890;SDS011;35780;55.568;37.492;2023-03-01T03:06:35;5.50;;;1.45;;
49890;SDS011;35780;55.568;37.492;2023-03-01T03:09:01;6.05;;;2.63;;
49890;SDS011;35780;55.568;37.492;2023-03-01T03:11:27;2.10;;;1.13;;
49890;SDS011;35780;55.568;37.492;2023-03-01T03:13:53;2.25;;;1.05;;
49890;SDS011;35780;55.568;37.492;2023-03-01T03:16:22;5.38;;;2.08;;
49890;SDS011;35780;55.568;37.492;2023-03-01T03:18:48;5.28;;;1.73;;
49890;SDS011;35780;55.568;37.492;2023-03-01T03:21:14;9.27;;;1.27;;
49890;SDS011;35780;55.568;37.492;2023-03-01T03:23:40;4.82;;;1.02;;
49890;SDS011;35780;55.568;37.492;2023-03-01T03:26:05;7.13;;;1.75;;
49890;SDS011;35780;55.568;37.492;2023-03-01T03:28:31;4.53;;;1.35;;
49890;SDS011;35780;55.568;37.492;2023-03-01T03:30:57;10.70;;;1.33;;
49890;SDS011;35780;55.568;37.492;2023-03-01T03:33:23;3.25;;;1.15;;
49890;SDS011;35780;55.568;37.492;2023-03-01T03:35:50;5.30;;;1.17;;
49890;SDS011;35780;55.568;37.492;2023-03-01T03:38:16;2.92;;;1.05;;
49890;SDS011;35780;55.568;37.492;2023-03-01T03:40:45;7.35;;;0.80;;
49890;SDS011;35780;55.568;37.492;2023-03-01T03:43:19;5.90;;;1.08;;
49890;SDS011;35780;55.568;37.492;2023-03-01T03:45:46;7.53;;;1.48;;
49890;SDS011;35780;55.568;37.492;2023-03-01T03:48:13;2.38;;;1.00;;
49890;SDS011;35780;55.568;37.492;2023-03-01T03:50:39;3.80;;;1.00;;
49890;SDS011;35780;55.568;37.492;2023-03-01T03:53:07;5.05;;;1.13;;
49890;SDS011;35780;55.568;37.492;2023-03-01T03:55:35;6.38;;;1.20;;
49890;SDS011;35780;55.568;37.492;2023-03-01T03:58:04;2.25;;;1.00;;
49890;SDS011;35780;55.568;37.492;2023-03-01T04:00:38;7.35;;;2.03;;
49890;SDS011;35780;55.568;37.492;2023-03-01T04:03:06;4.78;;;1.10;;
49890;SDS011;35780;55.568;37.492;2023-03-01T04:05:32;9.65;;;1.50;;
49890;SDS011;35780;55.568;37.492;2023-03-01T04:07:58;5.15;;;0.90;;
49890;SDS011;35780;55.568;37.492;2023-03-01T04:10:27;3.38;;;1.40;;
49890;SDS011;35780;55.568;37.492;2023-03-01T04:12:53;5.25;;;1.50;;
49890;SDS011;35780;55.568;37.492;2023-03-01T04:15:21;4.03;;;1.30;;
49890;SDS011;35780;55.568;37.492;2023-03-01T04:17:49;4.55;;;1.40;;
49890;SDS011;35780;55.568;37.492;2023-03-01T04:20:16;7.65;;;1.55;;
49890;SDS011;35780;55.568;37.492;2023-03-01T04:22:57;4.75;;;1.75;;
49890;SDS011;35780;55.568;37.492;2023-03-01T04:25:23;4.47;;;1.30;;
49890;SDS011;35780;55.568;37.492;2023-03-01T04:27:48;9.07;;;1.95;;
49890;SDS011;35780;55.568;37.492;2023-03-01T04:30:14;7.97;;;1.65;;
49890;SDS011;35780;55.568;37.492;2023-03-01T04:32:40;5.10;;;1.60;;
49890;SDS011;35780;55.568;37.492;2023-03-01T04:35:06;5.03;;;1.90;;
49890;SDS011;35780;55.568;37.492;2023-03-01T04:37:32;5.88;;;2.38;;
49890;SDS011;35780;55.568;37.492;2023-03-01T04:39:58;6.65;;;1.75;;
49890;SDS011;35780;55.568;37.492;2023-03-01T04:42:23;4.63;;;1.65;;
49890;SDS011;35780;55.568;37.492;2023-03-01T04:44:49;6.82;;;1.40;;
49890;SDS011;35780;55.568;37.492;2023-03-01T04:47:16;3.72;;;1.38;;
49890;SDS011;35780;55.568;37.492;2023-03-01T04:49:42;3.60;;;1.02;;
49890;SDS011;35780;55.568;37.492;2023-03-01T04:52:07;3.42;;;1.20;;
49890;SDS011;35780;55.568;37.492;2023-03-01T04:54:34;2.92;;;1.33;;
49890;SDS011;35780;55.568;37.492;2023-03-01T04:57:01;3.97;;;1.50;;
49890;SDS011;35780;55.568;37.492;2023-03-01T04:59:27;5.03;;;1.45;;
49890;SDS011;35780;55.568;37.492;2023-03-01T05:01:54;4.43;;;1.73;;
49890;SDS011;35780;55.568;37.492;2023-03-01T05:04:21;8.15;;;1.90;;
49890;SDS011;35780;55.568;37.492;2023-03-01T05:06:47;5.88;;;1.60;;
49890;SDS011;35780;55.568;37.492;2023-03-01T05:09:13;4.78;;;2.75;;
49890;SDS011;35780;55.568;37.492;2023-03-01T05:11:38;6.13;;;1.65;;
49890;SDS011;35780;55.568;37.492;2023-03-01T05:14:05;3.80;;;2.00;;
49890;SDS011;35780;55.568;37.492;2023-03-01T05:16:31;4.72;;;1.85;;
49890;SDS011;35780;55.568;37.492;2023-03-01T05:18:57;10.70;;;2.25;;
49890;SDS011;35780;55.568;37.492;2023-03-01T05:21:23;6.80;;;1.98;;
49890;SDS011;35780;55.568;37.492;2023-03-01T05:23:49;11.15;;;1.75;;
49890;SDS011;35780;55.568;37.492;2023-03-01T05:26:15;7.28;;;1.70;;
49890;SDS011;35780;55.568;37.492;2023-03-01T05:28:42;4.57;;;1.92;;
49890;SDS011;35780;55.568;37.492;2023-03-01T05:31:08;7.50;;;2.17;;
49890;SDS011;35780;55.568;37.492;2023-03-01T05:33:38;4.78;;;1.45;;
49890;SDS011;35780;55.568;37.492;2023-03-01T05:36:05;4.32;;;1.42;;
49890;SDS011;35780;55.568;37.492;2023-03-01T05:38:31;5.60;;;1.40;;
49890;SDS011;35780;55.568;37.492;2023-03-01T05:40:57;7.15;;;1.38;;
49890;SDS011;35780;55.568;37.492;2023-03-01T05:43:22;6.50;;;2.65;;
49890;SDS011;35780;55.568;37.492;2023-03-01T05:45:48;5.32;;;1.50;;
49890;SDS011;35780;55.568;37.492;2023-03-01T05:48:13;4.53;;;1.55;;
49890;SDS011;35780;55.568;37.492;2023-03-01T05:50:41;3.67;;;1.58;;
49890;SDS011;35780;55.568;37.492;2023-03-01T05:53:11;4.05;;;1.35;;
49890;SDS011;35780;55.568;37.492;2023-03-01T05:55:38;5.05;;;1.50;;
49890;SDS011;35780;55.568;37.492;2023-03-01T05:58:06;4.93;;;1.35;;
49890;SDS011;35780;55.568;37.492;2023-03-01T06:00:34;4.55;;;1.63;;
49890;SDS011;35780;55.568;37.492;2023-03-01T06:03:00;8.30;;;1.80;;
49890;SDS011;35780;55.568;37.492;2023-03-01T06:05:25;3.92;;;1.65;;
49890;SDS011;35780;55.568;37.492;2023-03-01T06:07:51;6.35;;;1.30;;
49890;SDS011;35780;55.568;37.492;2023-03-01T06:10:18;4.10;;;1.80;;
49890;SDS011;35780;55.568;37.492;2023-03-01T06:12:44;7.40;;;1.90;;
49890;SDS011;35780;55.568;37.492;2023-03-01T06:15:12;4.00;;;1.63;;
49890;SDS011;35780;55.568;37.492;2023-03-01T06:17:39;5.85;;;1.52;;
49890;SDS011;35780;55.568;37.492;2023-03-01T06:20:08;11.27;;;2.13;;
49890;SDS011;35780;55.568;37.492;2023-03-01T06:22:35;5.60;;;1.85;;
49890;SDS011;35780;55.568;37.492;2023-03-01T06:25:00;5.68;;;1.52;;
49890;SDS011;35780;55.568;37.492;2023-03-01T06:27:28;8.15;;;2.28;;
49890;SDS011;35780;55.568;37.492;2023-03-01T06:29:53;5.95;;;2.00;;
49890;SDS011;35780;55.568;37.492;2023-03-01T06:32:19;7.45;;;1.92;;
49890;SDS011;35780;55.568;37.492;2023-03-01T06:34:45;7.78;;;1.52;;
49890;SDS011;35780;55.568;37.492;2023-03-01T06:37:10;6.47;;;2.03;;
49890;SDS011;35780;55.568;37.492;2023-03-01T06:39:36;6.78;;;2.78;;
49890;SDS011;35780;55.568;37.492;2023-03-01T06:42:02;6.05;;;1.40;;
49890;SDS011;35780;55.568;37.492;2023-03-01T06:44:27;4.72;;;1.63;;
49890;SDS011;35780;55.568;37.492;2023-03-01T06:46:53;7.00;;;2.10;;
49890;SDS011;35780;55.568;37.492;2023-03-01T06:49:19;5.47;;;1.70;;
49890;SDS011;35780;55.568;37.492;2023-03-01T06:51:45;4.25;;;1.40;;
49890;SDS011;35780;55.568;37.492;2023-03-01T06:54:11;2.65;;;1.33;;
49890;SDS011;35780;55.568;37.492;2023-03-01T06:56:36;5.65;;;1.98;;
49890;SDS011;35780;55.568;37.492;2023-03-01T06:59:02;7.18;;;1.92;;
49890;SDS011;35780;55.568;37.492;2023-03-01T07:01:28;4.97;;;1.80;;
49890;SDS011;35780;55.568;37.492;2023-03-01T07:03:54;5.13;;;1.98;;
49890;SDS011;35780;55.568;37.492;2023-03-01T07:06:20;7.22;;;2.00;;
49890;SDS011;35780;55.568;37.492;2023-03-01T07:08:46;4.97;;;2.03;;
49890;SDS011;35780;55.568;37.492;2023-03-01T07:11:12;6.68;;;1.80;;
49890;SDS011;35780;55.568;37.492;2023-03-01T07:13:37;4.20;;;1.67;;
49890;SDS011;35780;55.568;37.492;2023-03-01T07:16:03;7.88;;;1.80;;
49890;SDS011;35780;55.568;37.492;2023-03-01T07:18:29;5.63;;;2.17;;
49890;SDS011;35780;55.568;37.492;2023-03-01T07:20:54;4.43;;;1.63;;
49890;SDS011;35780;55.568;37.492;2023-03-01T07:23:20;5.25;;;1.95;;
49890;SDS011;35780;55.568;37.492;2023-03-01T07:25:51;4.15;;;1.63;;
49890;SDS011;35780;55.568;37.492;2023-03-01T07:28:17;4.40;;;1.50;;
49890;SDS011;35780;55.568;37.492;2023-03-01T07:30:43;5.70;;;1.92;;
49890;SDS011;35780;55.568;37.492;2023-03-01T07:33:08;4.18;;;1.70;;
49890;SDS011;35780;55.568;37.492;2023-03-01T07:35:34;6.22;;;1.90;;
49890;SDS011;35780;55.568;37.492;2023-03-01T07:37:59;4.53;;;1.75;;
49890;SDS011;35780;55.568;37.492;2023-03-01T07:40:25;6.18;;;1.88;;
49890;SDS011;35780;55.568;37.492;2023-03-01T07:42:54;3.97;;;1.65;;
49890;SDS011;35780;55.568;37.492;2023-03-01T07:45:21;7.15;;;2.45;;
49890;SDS011;35780;55.568;37.492;2023-03-01T07:47:46;10.90;;;2.83;;
49890;SDS011;35780;55.568;37.492;2023-03-01T07:50:12;5.60;;;1.83;;
49890;SDS011;35780;55.568;37.492;2023-03-01T07:52:38;4.00;;;1.50;;
49890;SDS011;35780;55.568;37.492;2023-03-01T07:55:04;7.10;;;1.90;;
49890;SDS011;35780;55.568;37.492;2023-03-01T07:57:30;9.88;;;2.58;;
49890;SDS011;35780;55.568;37.492;2023-03-01T07:59:56;6.88;;;1.95;;
49890;SDS011;35780;55.568;37.492;2023-03-01T08:02:22;4.60;;;1.80;;
49890;SDS011;35780;55.568;37.492;2023-03-01T08:04:48;5.07;;;2.25;;
49890;SDS011;35780;55.568;37.492;2023-03-01T08:07:13;6.72;;;1.83;;
49890;SDS011;35780;55.568;37.492;2023-03-01T08:09:39;7.00;;;1.77;;
49890;SDS011;35780;55.568;37.492;2023-03-01T08:12:05;6.47;;;2.22;;
49890;SDS011;35780;55.568;37.492;2023-03-01T08:14:31;6.22;;;1.98;;
49890;SDS011;35780;55.568;37.492;2023-03-01T08:16:57;5.68;;;2.08;;
49890;SDS011;35780;55.568;37.492;2023-03-01T08:19:23;7.97;;;2.28;;
49890;SDS011;35780;55.568;37.492;2023-03-01T08:21:49;5.57;;;2.58;;
49890;SDS011;35780;55.568;37.492;2023-03-01T08:24:14;10.90;;;2.95;;
49890;SDS011;35780;55.568;37.492;2023-03-01T08:26:40;6.55;;;2.28;;
49890;SDS011;35780;55.568;37.492;2023-03-01T08:29:05;6.18;;;2.10;;
49890;SDS011;35780;55.568;37.492;2023-03-01T08:31:32;4.63;;;1.80;;
49890;SDS011;35780;55.568;37.492;2023-03-01T08:34:01;5.53;;;1.90;;
49890;SDS011;35780;55.568;37.492;2023-03-01T08:36:30;4.13;;;1.60;;
49890;SDS011;35780;55.568;37.492;2023-03-01T08:39:00;4.63;;;1.88;;
49890;SDS011;35780;55.568;37.492;2023-03-01T08:41:26;5.35;;;1.70;;
49890;SDS011;35780;55.568;37.492;2023-03-01T08:43:52;5.28;;;1.90;;
49890;SDS011;35780;55.568;37.492;2023-03-01T08:46:23;11.85;;;2.20;;
49890;SDS011;35780;55.568;37.492;2023-03-01T08:48:56;6.55;;;2.67;;
49890;SDS011;35780;55.568;37.492;2023-03-01T08:51:22;4.65;;;1.73;;
49890;SDS011;35780;55.568;37.492;2023-03-01T08:53:48;4.32;;;1.58;;
49890;SDS011;35780;55.568;37.492;2023-03-01T08:56:14;6.95;;;2.70;;
49890;SDS011;35780;55.568;37.492;2023-03-01T08:58:43;3.22;;;1.25;;
49890;SDS011;35780;55.568;37.492;2023-03-01T09:01:13;4.03;;;1.58;;
49890;SDS011;35780;55.568;37.492;2023-03-01T09:03:40;4.90;;;1.35;;
49890;SDS011;35780;55.568;37.492;2023-03-01T09:06:07;4.43;;;2.20;;
49890;SDS011;35780;55.568;37.492;2023-03-01T09:08:36;6.30;;;1.98;;
49890;SDS011;35780;55.568;37.492;2023-03-01T09:11:03;6.85;;;2.25;;
49890;SDS011;35780;55.568;37.492;2023-03-01T09:13:30;5.60;;;1.60;;
49890;SDS011;35780;55.568;37.492;2023-03-01T09:15:58;4.72;;;1.88;;
49890;SDS011;35780;55.568;37.492;2023-03-01T09:18:24;5.90;;;2.47;;
49890;SDS011;35780;55.568;37.492;2023-03-01T09:20:49;7.47;;;1.88;;
49890;SDS011;35780;55.568;37.492;2023-03-01T09:23:15;6.82;;;1.60;;
49890;SDS011;35780;55.568;37.492;2023-03-01T09:25:40;4.90;;;1.90;;
49890;SDS011;35780;55.568;37.492;2023-03-01T09:28:06;4.72;;;1.77;;
49890;SDS011;35780;55.568;37.492;2023-03-01T09:30:31;12.00;;;2.55;;
49890;SDS011;35780;55.568;37.492;2023-03-01T09:32:57;5.80;;;1.55;;
49890;SDS011;35780;55.568;37.492;2023-03-01T09:35:23;4.28;;;1.60;;
49890;SDS011;35780;55.568;37.492;2023-03-01T09:37:49;5.63;;;2.25;;
49890;SDS011;35780;55.568;37.492;2023-03-01T09:40:21;4.18;;;1.77;;
49890;SDS011;35780;55.568;37.492;2023-03-01T09:45:23;5.18;;;1.67;;
49890;SDS011;35780;55.568;37.492;2023-03-01T09:47:51;5.63;;;1.90;;
49890;SDS011;35780;55.568;37.492;2023-03-01T09:50:18;7.32;;;1.88;;
49890;SDS011;35780;55.568;37.492;2023-03-01T09:52:46;4.65;;;1.30;;
49890;SDS011;35780;55.568;37.492;2023-03-01T09:55:17;4.65;;;1.73;;
49890;SDS011;35780;55.568;37.492;2023-03-01T10:01:02;6.47;;;1.48;;
49890;SDS011;35780;55.568;37.492;2023-03-01T10:03:45;3.90;;;1.40;;
49890;SDS011;35780;55.568;37.492;2023-03-01T10:06:34;5.25;;;1.42;;
49890;SDS011;35780;55.568;37.492;2023-03-01T10:09:07;5.25;;;1.65;;
49890;SDS011;35780;55.568;37.492;2023-03-01T10:11:41;4.45;;;1.60;;
49890;SDS011;35780;55.568;37.492;2023-03-01T10:14:24;7.15;;;2.83;;
49890;SDS011;35780;55.568;37.492;2023-03-01T10:16:57;4.07;;;1.30;;
49890;SDS011;35780;55.568;37.492;2023-03-01T10:21:53;6.03;;;2.25;;
49890;SDS011;35780;55.568;37.492;2023-03-01T10:24:19;6.35;;;2.28;;
49890;SDS011;35780;55.568;37.492;2023-03-01T10:26:47;4.25;;;1.70;;
49890;SDS011;35780;55.568;37.492;2023-03-01T10:29:19;5.80;;;1.58;;
49890;SDS011;35780;55.568;37.492;2023-03-01T10:31:50;9.48;;;1.48;;
49890;SDS011;35780;55.568;37.492;2023-03-01T10:34:21;4.80;;;1.75;;
49890;SDS011;35780;55.568;37.492;2023-03-01T10:36:58;4.00;;;1.48;;
49890;SDS011;35780;55.568;37.492;2023-03-01T10:39:30;3.00;;;1.27;;
49890;SDS011;35780;55.568;37.492;2023-03-01T10:47:26;4.70;;;1.77;;
49890;SDS011;35780;55.568;37.492;2023-03-01T10:52:18;5.90;;;1.83;;
49890;SDS011;35780;55.568;37.492;2023-03-01T10:54:52;4.32;;;1.52;;
49890;SDS011;35780;55.568;37.492;2023-03-01T10:57:36;6.40;;;1.55;;
49890;SDS011;35780;55.568;37.492;2023-03-01T11:00:24;13.77;;;2.28;;
49890;SDS011;35780;55.568;37.492;2023-03-01T11:03:11;5.78;;;1.90;;
49890;SDS011;35780;55.568;37.492;2023-03-01T11:05:50;7.88;;;1.92;;
49890;SDS011;35780;55.568;37.492;2023-03-01T11:11:17;5.10;;;1.70;;
49890;SDS011;35780;55.568;37.492;2023-03-01T11:13:57;10.70;;;1.52;;
49890;SDS011;35780;55.568;37.492;2023-03-01T11:16:41;6.00;;;1.60;;
49890;SDS011;35780;55.568;37.492;2023-03-01T11:21:42;4.32;;;1.40;;
49890;SDS011;35780;55.568;37.492;2023-03-01T11:24:51;8.23;;;1.77;;
49890;SDS011;35780;55.568;37.492;2023-03-01T11:30:02;4.65;;;1.52;;
49890;SDS011;35780;55.568;37.492;2023-03-01T11:32:34;3.47;;;1.15;;
49890;SDS011;35780;55.568;37.492;2023-03-01T11:35:08;19.33;;;1.73;;
49890;SDS011;35780;55.568;37.492;2023-03-01T11:37:40;4.63;;;1.52;;
49890;SDS011;35780;55.568;37.492;2023-03-01T11:40:17;6.28;;;1.55;;
49890;SDS011;35780;55.568;37.492;2023-03-01T11:42:51;3.17;;;1.20;;
49890;SDS011;35780;55.568;37.492;2023-03-01T11:45:24;3.10;;;1.35;;
49890;SDS011;35780;55.568;37.492;2023-03-01T11:47:55;6.88;;;1.23;;
49890;SDS011;35780;55.568;37.492;2023-03-01T11:50:40;5.13;;;1.42;;
49890;SDS011;35780;55.568;37.492;2023-03-01T11:56:13;4.45;;;1.30;;
49890;SDS011;35780;55.568;37.492;2023-03-01T12:15:29;4.38;;;1.48;;
49890;SDS011;35780;55.568;37.492;2023-03-01T12:36:56;4.15;;;1.20;;
49890;SDS011;35780;55.568;37.492;2023-03-01T12:44:58;5.97;;;1.57;;
49890;SDS011;35780;55.568;37.492;2023-03-01T12:50:17;3.28;;;1.15;;
49890;SDS011;35780;55.568;37.492;2023-03-01T12:56:16;3.33;;;1.25;;
49890;SDS011;35780;55.568;37.492;2023-03-01T13:04:32;5.05;;;1.80;;
49890;SDS011;35780;55.568;37.492;2023-03-01T13:07:15;5.85;;;1.13;;
49890;SDS011;35780;55.568;37.492;2023-03-01T13:12:42;6.30;;;0.82;;
49890;SDS011;35780;55.568;37.492;2023-03-01T13:15:29;2.88;;;0.90;;
49890;SDS011;35780;55.568;37.492;2023-03-01T13:18:01;4.28;;;1.10;;
49890;SDS011;35780;55.568;37.492;2023-03-01T13:31:06;2.85;;;1.08;;
49890;SDS011;35780;55.568;37.492;2023-03-01T13:35:59;3.55;;;1.13;;
49890;SDS011;35780;55.568;37.492;2023-03-01T13:38:48;4.43;;;1.42;;
49890;SDS011;35780;55.568;37.492;2023-03-01T13:46:58;4.53;;;1.20;;
49890;SDS011;35780;55.568;37.492;2023-03-01T13:49:28;4.53;;;1.20;;
49890;SDS011;35780;55.568;37.492;2023-03-01T13:51:58;5.72;;;1.17;;
49890;SDS011;35780;55.568;37.492;2023-03-01T13:54:30;2.28;;;0.90;;
49890;SDS011;35780;55.568;37.492;2023-03-01T13:56:58;3.33;;;1.50;;
49890;SDS011;35780;55.568;37.492;2023-03-01T13:59:24;3.10;;;1.23;;
49890;SDS011;35780;55.568;37.492;2023-03-01T14:01:58;4.97;;;0.90;;
49890;SDS011;35780;55.568;37.492;2023-03-01T14:04:27;2.53;;;0.77;;
49890;SDS011;35780;55.568;37.492;2023-03-01T14:09:43;5.90;;;1.67;;
49890;SDS011;35780;55.568;37.492;2023-03-01T14:14:40;2.35;;;0.75;;
49890;SDS011;35780;55.568;37.492;2023-03-01T14:20:18;2.03;;;0.95;;
49890;SDS011;35780;55.568;37.492;2023-03-01T14:22:45;2.70;;;1.08;;
49890;SDS011;35780;55.568;37.492;2023-03-01T14:30:24;4.05;;;1.60;;
49890;SDS011;35780;55.568;37.492;2023-03-01T14:32:57;2.83;;;1.13;;
49890;SDS011;35780;55.568;37.492;2023-03-01T14:35:32;2.33;;;1.02;;
49890;SDS011;35780;55.568;37.492;2023-03-01T14:37:59;6.68;;;1.75;;
49890;SDS011;35780;55.568;37.492;2023-03-01T14:42:56;3.42;;;1.10;;
49890;SDS011;35780;55.568;37.492;2023-03-01T14:45:24;3.13;;;1.10;;
49890;SDS011;35780;55.568;37.492;2023-03-01T14:47:51;5.28;;;1.35;;
49890;SDS011;35780;55.568;37.492;2023-03-01T14:50:22;2.78;;;1.02;;
49890;SDS011;35780;55.568;37.492;2023-03-01T14:52:51;7.05;;;1.67;;
49890;SDS011;35780;55.568;37.492;2023-03-01T14:55:25;4.93;;;1.83;;
49890;SDS011;35780;55.568;37.492;2023-03-01T14:57:54;4.53;;;1.65;;
49890;SDS011;35780;55.568;37.492;2023-03-01T15:00:26;3.85;;;1.23;;
49890;SDS011;35780;55.568;37.492;2023-03-01T15:02:54;4.32;;;1.52;;
49890;SDS011;35780;55.568;37.492;2023-03-01T15:05:25;2.88;;;1.17;;
49890;SDS011;35780;55.568;37.492;2023-03-01T15:07:54;4.15;;;1.70;;
49890;SDS011;35780;55.568;37.492;2023-03-01T15:10:24;6.10;;;1.45;;
49890;SDS011;35780;55.568;37.492;2023-03-01T15:12:52;10.98;;;2.50;;
49890;SDS011;35780;55.568;37.492;2023-03-01T15:15:19;4.80;;;1.40;;
49890;SDS011;35780;55.568;37.492;2023-03-01T15:18:05;3.42;;;1.15;;
49890;SDS011;35780;55.568;37.492;2023-03-01T15:20:39;4.68;;;1.80;;
49890;SDS011;35780;55.568;37.492;2023-03-01T15:23:04;5.30;;;2.15;;
49890;SDS011;35780;55.568;37.492;2023-03-01T15:25:30;3.20;;;1.20;;
49890;SDS011;35780;55.568;37.492;2023-03-01T15:27:58;2.78;;;1.30;;
49890;SDS011;35780;55.568;37.492;2023-03-01T15:30:32;4.95;;;1.30;;
49890;SDS011;35780;55.568;37.492;2023-03-01T15:36:02;6.55;;;2.08;;
49890;SDS011;35780;55.568;37.492;2023-03-01T15:38:55;10.15;;;1.95;;
49890;SDS011;35780;55.568;37.492;2023-03-01T15:41:24;8.70;;;1.90;;
49890;SDS011;35780;55.568;37.492;2023-03-01T15:44:17;8.70;;;2.42;;
49890;SDS011;35780;55.568;37.492;2023-03-01T15:46:50;5.88;;;2.50;;
49890;SDS011;35780;55.568;37.492;2023-03-01T15:49:25;10.57;;;2.97;;
49890;SDS011;35780;55.568;37.492;2023-03-01T15:52:01;4.38;;;2.13;;
49890;SDS011;35780;55.568;37.492;2023-03-01T15:54:28;5.95;;;2.40;;
49890;SDS011;35780;55.568;37.492;2023-03-01T15:56:54;9.07;;;2.75;;
49890;SDS011;35780;55.568;37.492;2023-03-01T15:59:20;9.10;;;3.15;;
49890;SDS011;35780;55.568;37.492;2023-03-01T16:01:47;9.73;;;2.75;;
49890;SDS011;35780;55.568;37.492;2023-03-01T16:04:14;8.32;;;2.50;;
49890;SDS011;35780;55.568;37.492;2023-03-01T16:06:52;10.40;;;2.53;;
49890;SDS011;35780;55.568;37.492;2023-03-01T16:09:21;6.47;;;2.20;;
49890;SDS011;35780;55.568;37.492;2023-03-01T16:11:48;5.75;;;2.08;;
49890;SDS011;35780;55.568;37.492;2023-03-01T16:14:14;5.75;;;2.03;;
49890;SDS011;35780;55.568;37.492;2023-03-01T16:16:41;6.28;;;2.40;;
49890;SDS011;35780;55.568;37.492;2023-03-01T16:19:07;10.95;;;2.67;;
49890;SDS011;35780;55.568;37.492;2023-03-01T16:21:33;7.15;;;2.05;;
49890;SDS011;35780;55.568;37.492;2023-03-01T16:23:58;7.32;;;2.38;;
49890;SDS011;35780;55.568;37.492;2023-03-01T16:26:24;5.50;;;2.30;;
49890;SDS011;35780;55.568;37.492;2023-03-01T16:28:49;4.95;;;2.33;;
49890;SDS011;35780;55.568;37.492;2023-03-01T16:31:18;6.55;;;2.00;;
49890;SDS011;35780;55.568;37.492;2023-03-01T16:33:44;8.45;;;1.98;;
49890;SDS011;35780;55.568;37.492;2023-03-01T16:36:14;5.65;;;2.10;;
49890;SDS011;35780;55.568;37.492;2023-03-01T16:38:41;4.22;;;1.42;;
49890;SDS011;35780;55.568;37.492;2023-03-01T16:41:11;5.55;;;2.20;;
49890;SDS011;35780;55.568;37.492;2023-03-01T16:43:38;9.25;;;1.55;;
49890;SDS011;35780;55.568;37.492;2023-03-01T16:46:16;8.35;;;1.70;;
49890;SDS011;35780;55.568;37.492;2023-03-01T16:48:44;7.90;;;1.60;;
49890;SDS011;35780;55.568;37.492;2023-03-01T16:51:11;3.28;;;1.27;;